createdAt,value
2017-07-07T00:00:38.794Z,17.6
2017-07-07T00:01:40.860Z,17.6
2017-07-07T00:02:42.920Z,17.6
2017-07-07T00:03:44.980Z,17.6
2017-07-07T00:04:47.034Z,17.6
2017-07-07T00:05:49.101Z,17.6
2017-07-07T00:06:51.513Z,17.6
2017-07-07T00:07:53.566Z,17.7
2017-07-07T00:08:55.626Z,17.7
2017-07-07T00:09:57.686Z,17.7
2017-07-07T00:10:59.744Z,17.7
2017-07-07T00:12:01.807Z,17.7
2017-07-07T00:13:03.855Z,17.7
2017-07-07T00:14:05.927Z,17.7
2017-07-07T00:15:07.975Z,17.7
2017-07-07T00:16:10.042Z,17.7
2017-07-07T00:17:12.095Z,17.8
2017-07-07T00:18:14.152Z,17.8
2017-07-07T00:19:16.219Z,17.8
2017-07-07T00:20:18.281Z,17.7
2017-07-07T00:21:20.347Z,17.7
2017-07-07T00:22:22.782Z,17.8
2017-07-07T00:23:24.825Z,17.8
2017-07-07T00:24:26.892Z,17.8
2017-07-07T00:25:28.954Z,17.9
2017-07-07T00:26:31.015Z,17.9
2017-07-07T00:27:33.077Z,17.8
2017-07-07T00:28:35.133Z,17.8
2017-07-07T00:29:37.201Z,17.8
2017-07-07T00:30:39.257Z,17.8
2017-07-07T00:31:41.314Z,17.8
2017-07-07T00:32:43.384Z,17.8
2017-07-07T00:33:45.445Z,17.9
2017-07-07T00:34:47.881Z,17.9
2017-07-07T00:35:50.285Z,17.9
2017-07-07T00:36:52.346Z,17.9
2017-07-07T00:37:54.400Z,17.9
2017-07-07T00:38:56.460Z,17.9
2017-07-07T00:39:58.895Z,17.9
2017-07-07T00:41:01.375Z,17.9
2017-07-07T00:42:03.430Z,17.9
2017-07-07T00:43:05.490Z,17.9
2017-07-07T00:44:07.546Z,17.9
2017-07-07T00:45:09.607Z,17.9
2017-07-07T00:46:11.670Z,17.9
2017-07-07T00:47:13.731Z,17.9
2017-07-07T00:48:15.795Z,17.9
2017-07-07T00:49:17.853Z,17.9
2017-07-07T00:50:19.899Z,17.9
2017-07-07T00:51:21.964Z,17.9
2017-07-07T00:52:24.018Z,17.9
2017-07-07T00:53:26.075Z,17.9
2017-07-07T00:54:28.488Z,17.8
2017-07-07T00:55:30.533Z,17.8
2017-07-07T00:56:32.600Z,17.8
2017-07-07T00:57:34.663Z,17.8
2017-07-07T00:58:36.725Z,17.8
2017-07-07T00:59:38.790Z,17.8
2017-07-07T01:00:41.191Z,17.8
2017-07-07T01:01:43.627Z,17.8
2017-07-07T01:02:45.691Z,17.9
2017-07-07T01:03:47.755Z,17.8
2017-07-07T01:04:49.818Z,17.8
2017-07-07T01:05:51.873Z,17.8
2017-07-07T01:06:53.932Z,17.8
2017-07-07T01:07:55.987Z,17.8
2017-07-07T01:08:58.054Z,17.8
2017-07-07T01:10:00.119Z,17.8
2017-07-07T01:11:02.173Z,17.8
2017-07-07T01:12:04.235Z,17.8
2017-07-07T01:13:06.294Z,17.8
2017-07-07T01:14:08.346Z,17.8
2017-07-07T01:15:10.404Z,17.8
2017-07-07T01:16:12.473Z,17.8
2017-07-07T01:17:14.533Z,17.8
2017-07-07T01:18:16.598Z,17.9
2017-07-07T01:19:18.654Z,17.9
2017-07-07T01:20:20.711Z,17.9
2017-07-07T01:21:22.776Z,17.9
2017-07-07T01:22:24.833Z,17.9
2017-07-07T01:23:26.903Z,17.9
2017-07-07T01:24:29.305Z,17.9
2017-07-07T01:25:31.363Z,17.9
2017-07-07T01:26:33.424Z,17.9
2017-07-07T01:27:35.480Z,17.9
2017-07-07T01:28:37.543Z,17.9
2017-07-07T01:29:39.604Z,17.9
2017-07-07T01:30:41.658Z,17.9
2017-07-07T01:31:43.720Z,17.9
2017-07-07T01:32:45.774Z,17.9
2017-07-07T01:33:47.834Z,17.9
2017-07-07T01:34:49.895Z,17.9
2017-07-07T01:35:51.955Z,17.9
2017-07-07T01:36:54.366Z,17.9
2017-07-07T01:37:56.428Z,17.9
2017-07-07T01:38:58.494Z,17.9
2017-07-07T01:40:00.549Z,17.9
2017-07-07T01:41:02.611Z,17.9
2017-07-07T01:42:04.667Z,17.9
2017-07-07T01:43:06.720Z,17.9
2017-07-07T01:44:08.781Z,17.9
2017-07-07T01:45:10.845Z,17.9
2017-07-07T01:46:12.906Z,17.8
2017-07-07T01:47:14.959Z,17.8
2017-07-07T01:48:17.028Z,17.8
2017-07-07T01:49:19.077Z,17.9
2017-07-07T01:50:21.136Z,17.9
2017-07-07T01:51:23.194Z,17.9
2017-07-07T01:52:25.257Z,17.9
2017-07-07T01:53:27.318Z,17.8
2017-07-07T01:54:29.373Z,17.8
2017-07-07T01:55:31.440Z,17.8
2017-07-07T01:56:33.498Z,17.8
2017-07-07T01:57:35.553Z,17.8
2017-07-07T01:58:37.611Z,17.8
2017-07-07T01:59:39.672Z,17.8
2017-07-07T02:00:41.737Z,17.9
2017-07-07T02:01:43.793Z,17.9
2017-07-07T02:02:45.854Z,17.9
2017-07-07T02:03:47.922Z,17.9
2017-07-07T02:04:49.975Z,17.9
2017-07-07T02:05:52.034Z,17.9
2017-07-07T02:06:54.099Z,17.9
2017-07-07T02:07:56.162Z,17.9
2017-07-07T02:08:58.229Z,18
2017-07-07T02:10:00.286Z,18
2017-07-07T02:11:02.333Z,17.9
2017-07-07T02:12:04.398Z,18
2017-07-07T02:13:06.801Z,18
2017-07-07T02:14:09.502Z,18
2017-07-07T02:15:11.566Z,18
2017-07-07T02:16:13.620Z,18
2017-07-07T02:17:15.689Z,18
2017-07-07T02:18:17.741Z,18
2017-07-07T02:19:20.141Z,18
2017-07-07T02:20:22.209Z,18
2017-07-07T02:21:24.266Z,18
2017-07-07T02:22:26.326Z,18.1
2017-07-07T02:23:28.391Z,18.1
2017-07-07T02:24:30.448Z,18.1
2017-07-07T02:25:32.516Z,18.1
2017-07-07T02:26:34.571Z,18.1
2017-07-07T02:27:36.641Z,18.1
2017-07-07T02:28:38.697Z,18.1
2017-07-07T02:29:40.752Z,18.1
2017-07-07T02:30:42.820Z,18
2017-07-07T02:31:44.875Z,18.1
2017-07-07T02:32:46.937Z,18.1
2017-07-07T02:33:48.992Z,18.1
2017-07-07T02:34:51.051Z,18.1
2017-07-07T02:35:53.209Z,18
2017-07-07T02:36:55.278Z,18
2017-07-07T02:37:57.345Z,18
2017-07-07T02:38:59.411Z,18
2017-07-07T02:40:01.475Z,18
2017-07-07T02:41:03.535Z,18
2017-07-07T02:42:05.600Z,18
2017-07-07T02:43:07.660Z,18
2017-07-07T02:44:09.729Z,18
2017-07-07T02:45:11.787Z,18
2017-07-07T02:46:13.851Z,18
2017-07-07T02:47:15.917Z,18
2017-07-07T02:48:17.973Z,18
2017-07-07T02:49:20.028Z,18
2017-07-07T02:50:22.093Z,18
2017-07-07T02:51:24.163Z,18
2017-07-07T02:52:26.229Z,18
2017-07-07T02:53:28.278Z,18
2017-07-07T02:54:30.344Z,18
2017-07-07T02:55:32.403Z,18
2017-07-07T02:56:34.460Z,18
2017-07-07T02:57:36.525Z,18
2017-07-07T02:58:38.598Z,18
2017-07-07T02:59:40.670Z,18
2017-07-07T03:00:42.720Z,18
2017-07-07T03:01:44.782Z,18
2017-07-07T03:02:46.846Z,17.9
2017-07-07T03:03:48.911Z,17.9
2017-07-07T03:04:50.976Z,17.9
2017-07-07T03:05:53.037Z,17.9
2017-07-07T03:06:55.104Z,17.9
2017-07-07T03:07:57.161Z,17.9
2017-07-07T03:08:59.218Z,17.8
2017-07-07T03:10:01.637Z,17.8
2017-07-07T03:11:03.693Z,17.8
2017-07-07T03:12:05.753Z,17.8
2017-07-07T03:13:07.814Z,17.8
2017-07-07T03:14:09.878Z,17.8
2017-07-07T03:15:11.936Z,17.8
2017-07-07T03:16:13.995Z,17.8
2017-07-07T03:17:16.067Z,17.8
2017-07-07T03:18:18.133Z,17.8
2017-07-07T03:19:20.191Z,17.8
2017-07-07T03:20:22.256Z,17.8
2017-07-07T03:21:24.317Z,17.8
2017-07-07T03:22:26.382Z,17.8
2017-07-07T03:23:28.444Z,17.8
2017-07-07T03:24:30.502Z,17.8
2017-07-07T03:25:32.569Z,17.8
2017-07-07T03:26:34.634Z,17.8
2017-07-07T03:27:36.694Z,17.8
2017-07-07T03:28:38.756Z,17.8
2017-07-07T03:29:40.824Z,17.8
2017-07-07T03:30:42.881Z,17.8
2017-07-07T03:31:44.954Z,17.9
2017-07-07T03:32:47.005Z,17.9
2017-07-07T03:33:49.078Z,17.8
2017-07-07T03:34:51.137Z,17.8
2017-07-07T03:35:53.568Z,17.8
2017-07-07T03:36:55.674Z,17.8
2017-07-07T03:37:57.734Z,17.8
2017-07-07T03:38:59.795Z,17.8
2017-07-07T03:40:01.858Z,17.8
2017-07-07T03:41:03.910Z,17.8
2017-07-07T03:42:05.987Z,17.7
2017-07-07T03:43:08.035Z,17.8
2017-07-07T03:44:10.108Z,17.8
2017-07-07T03:45:12.173Z,17.8
2017-07-07T03:46:14.231Z,17.8
2017-07-07T03:47:16.295Z,17.8
2017-07-07T03:48:18.364Z,17.8
2017-07-07T03:49:20.428Z,17.7
2017-07-07T03:50:22.499Z,17.8
2017-07-07T03:51:24.554Z,17.7
2017-07-07T03:52:26.615Z,17.8
2017-07-07T03:53:28.670Z,17.8
2017-07-07T03:54:30.740Z,17.8
2017-07-07T03:55:32.803Z,17.8
2017-07-07T03:56:34.870Z,17.8
2017-07-07T03:57:36.933Z,17.8
2017-07-07T03:58:38.995Z,17.8
2017-07-07T03:59:41.052Z,17.8
2017-07-07T04:00:43.114Z,17.8
2017-07-07T04:01:45.177Z,17.8
2017-07-07T04:02:47.236Z,17.8
2017-07-07T04:03:49.306Z,17.8
2017-07-07T04:04:51.359Z,17.8
2017-07-07T04:05:53.433Z,17.9
2017-07-07T04:06:55.491Z,17.8
2017-07-07T04:07:57.561Z,17.9
2017-07-07T04:08:59.618Z,17.9
2017-07-07T04:10:01.676Z,17.9
2017-07-07T04:11:03.744Z,17.9
2017-07-07T04:12:05.806Z,17.9
2017-07-07T04:13:07.870Z,17.9
2017-07-07T04:14:09.943Z,17.9
2017-07-07T04:15:11.999Z,17.9
2017-07-07T04:16:14.067Z,17.9
2017-07-07T04:17:16.124Z,17.9
2017-07-07T04:18:18.195Z,17.9
2017-07-07T04:19:20.267Z,17.9
2017-07-07T04:20:22.329Z,18
2017-07-07T04:21:24.389Z,18
2017-07-07T04:22:26.450Z,18
2017-07-07T04:23:28.504Z,18
2017-07-07T04:24:30.572Z,18
2017-07-07T04:25:32.642Z,18
2017-07-07T04:26:34.712Z,18
2017-07-07T04:27:36.767Z,18
2017-07-07T04:28:38.830Z,18
2017-07-07T04:29:40.893Z,18
2017-07-07T04:30:42.958Z,18
2017-07-07T04:31:45.022Z,18
2017-07-07T04:32:47.096Z,18
2017-07-07T04:33:49.160Z,18
2017-07-07T04:34:51.221Z,18
2017-07-07T04:35:53.290Z,18
2017-07-07T04:36:55.399Z,18
2017-07-07T04:37:57.467Z,18
2017-07-07T04:38:59.537Z,18
2017-07-07T04:40:01.598Z,18
2017-07-07T04:41:03.669Z,18
2017-07-07T04:42:05.732Z,18
2017-07-07T04:43:07.798Z,18
2017-07-07T04:44:09.862Z,18
2017-07-07T04:45:11.925Z,18
2017-07-07T04:46:13.990Z,18
2017-07-07T04:47:16.052Z,18.1
2017-07-07T04:48:18.117Z,18
2017-07-07T04:49:20.186Z,18
2017-07-07T04:50:22.250Z,18
2017-07-07T04:51:24.318Z,18
2017-07-07T04:52:26.380Z,18
2017-07-07T04:53:28.681Z,18
2017-07-07T04:54:30.899Z,18
2017-07-07T04:55:32.958Z,18
2017-07-07T04:56:35.358Z,18
2017-07-07T04:57:37.426Z,18.1
2017-07-07T04:58:39.501Z,18.1
2017-07-07T04:59:41.562Z,18
2017-07-07T05:00:43.626Z,18.1
2017-07-07T05:01:45.694Z,18.1
2017-07-07T05:02:47.762Z,18.1
2017-07-07T05:03:49.822Z,18
2017-07-07T05:04:51.894Z,18
2017-07-07T05:05:53.962Z,18
2017-07-07T05:06:56.016Z,18
2017-07-07T05:07:58.090Z,18
2017-07-07T05:09:00.159Z,18
2017-07-07T05:10:02.218Z,18
2017-07-07T05:11:04.290Z,18
2017-07-07T05:12:06.446Z,18
2017-07-07T05:13:08.529Z,18
2017-07-07T05:14:10.587Z,18
2017-07-07T05:15:12.679Z,18
2017-07-07T05:16:14.753Z,18
2017-07-07T05:17:16.840Z,17.9
2017-07-07T05:18:18.996Z,17.9
2017-07-07T05:19:21.091Z,17.9
2017-07-07T05:20:23.168Z,17.9
2017-07-07T05:21:25.261Z,17.9
2017-07-07T05:22:27.373Z,17.9
2017-07-07T05:23:29.494Z,17.9
2017-07-07T05:24:31.965Z,17.8
2017-07-07T05:25:34.037Z,17.8
2017-07-07T05:26:36.119Z,17.8
2017-07-07T05:27:38.238Z,17.8
2017-07-07T05:28:40.304Z,17.7
2017-07-07T05:29:42.369Z,17.7
2017-07-07T05:30:44.489Z,17.8
2017-07-07T05:31:46.626Z,17.7
2017-07-07T05:32:48.746Z,17.7
2017-07-07T05:33:50.859Z,17.7
2017-07-07T05:34:52.960Z,17.6
2017-07-07T05:35:55.134Z,17.6
2017-07-07T05:36:57.228Z,17.6
2017-07-07T05:37:59.376Z,17.6
2017-07-07T05:39:01.509Z,17.6
2017-07-07T05:40:03.615Z,17.6
2017-07-07T05:41:05.706Z,17.6
2017-07-07T05:42:07.762Z,17.5
2017-07-07T05:43:09.853Z,17.5
2017-07-07T05:44:11.919Z,17.4
2017-07-07T05:45:13.974Z,17.3
2017-07-07T05:46:16.039Z,17.1
2017-07-07T05:47:18.094Z,17.1
2017-07-07T05:48:20.159Z,17.1
2017-07-07T05:49:22.215Z,17
2017-07-07T05:50:24.285Z,17.1
2017-07-07T05:51:26.355Z,17
2017-07-07T05:52:28.415Z,17
2017-07-07T05:53:30.476Z,17
2017-07-07T05:54:32.537Z,17
2017-07-07T05:55:34.607Z,17
2017-07-07T05:56:36.673Z,17
2017-07-07T05:57:38.726Z,16.9
2017-07-07T05:58:41.131Z,16.9
2017-07-07T05:59:43.194Z,16.9
2017-07-07T06:00:45.605Z,16.9
2017-07-07T06:01:47.678Z,16.9
2017-07-07T06:02:49.738Z,16.9
2017-07-07T06:03:51.813Z,16.9
2017-07-07T06:04:53.862Z,16.9
2017-07-07T06:05:55.926Z,16.9
2017-07-07T06:06:58.348Z,16.9
2017-07-07T06:08:00.424Z,16.8
2017-07-07T06:09:02.491Z,16.8
2017-07-07T06:10:04.557Z,16.8
2017-07-07T06:11:06.610Z,16.9
2017-07-07T06:12:08.688Z,16.9
2017-07-07T06:13:10.749Z,16.9
2017-07-07T06:14:12.806Z,16.9
2017-07-07T06:15:14.873Z,16.9
2017-07-07T06:16:16.941Z,16.9
2017-07-07T06:17:18.994Z,17
2017-07-07T06:18:21.058Z,17
2017-07-07T06:19:23.129Z,17
2017-07-07T06:20:25.195Z,17
2017-07-07T06:21:27.259Z,17
2017-07-07T06:22:29.327Z,17.1
2017-07-07T06:23:31.731Z,17.1
2017-07-07T06:24:33.788Z,17.1
2017-07-07T06:25:35.851Z,17.1
2017-07-07T06:26:37.923Z,17.1
2017-07-07T06:27:39.988Z,17.2
2017-07-07T06:28:42.071Z,17.2
2017-07-07T06:29:44.151Z,17.2
2017-07-07T06:30:46.914Z,17.2
2017-07-07T06:31:48.967Z,17.2
2017-07-07T06:32:51.027Z,17.3
2017-07-07T06:33:53.088Z,17.3
2017-07-07T06:34:55.147Z,17.3
2017-07-07T06:35:57.391Z,17.3
2017-07-07T06:36:59.491Z,17.4
2017-07-07T06:38:01.563Z,17.4
2017-07-07T06:39:03.629Z,17.4
2017-07-07T06:40:05.702Z,17.5
2017-07-07T06:41:07.772Z,17.5
2017-07-07T06:42:09.834Z,17.5
2017-07-07T06:43:11.926Z,17.5
2017-07-07T06:44:13.985Z,17.4
2017-07-07T06:45:16.041Z,17.4
2017-07-07T06:46:18.109Z,17.5
2017-07-07T06:47:20.182Z,17.5
2017-07-07T06:48:22.252Z,17.5
2017-07-07T06:49:24.319Z,17.5
2017-07-07T06:50:26.396Z,17.5
2017-07-07T06:51:28.472Z,17.5
2017-07-07T06:52:30.522Z,17.5
2017-07-07T06:53:32.590Z,17.5
2017-07-07T06:54:34.666Z,17.5
2017-07-07T06:55:36.740Z,17.5
2017-07-07T06:56:38.810Z,17.5
2017-07-07T06:57:40.884Z,17.5
2017-07-07T06:58:42.953Z,17.5
2017-07-07T06:59:45.032Z,17.5
2017-07-07T07:00:47.089Z,17.5
2017-07-07T07:01:49.171Z,17.5
2017-07-07T07:02:51.237Z,17.5
2017-07-07T07:03:53.304Z,17.4
2017-07-07T07:04:55.375Z,17.4
2017-07-07T07:05:57.441Z,17.5
2017-07-07T07:06:59.564Z,17.5
2017-07-07T07:08:01.920Z,17.5
2017-07-07T07:09:03.979Z,17.5
2017-07-07T07:10:06.062Z,17.5
2017-07-07T07:11:08.124Z,17.5
2017-07-07T07:12:10.202Z,17.5
2017-07-07T07:13:12.272Z,17.5
2017-07-07T07:14:14.334Z,17.5
2017-07-07T07:15:16.404Z,17.6
2017-07-07T07:16:18.814Z,17.6
2017-07-07T07:17:20.879Z,17.6
2017-07-07T07:18:22.932Z,17.6
2017-07-07T07:19:25.000Z,17.6
2017-07-07T07:20:27.068Z,17.7
2017-07-07T07:21:29.149Z,17.7
2017-07-07T07:22:31.213Z,17.7
2017-07-07T07:23:33.274Z,17.7
2017-07-07T07:24:35.350Z,17.7
2017-07-07T07:25:37.397Z,17.8
2017-07-07T07:26:39.466Z,17.8
2017-07-07T07:27:41.550Z,17.7
2017-07-07T07:28:43.957Z,17.7
2017-07-07T07:29:46.015Z,17.8
2017-07-07T07:30:48.075Z,17.9
2017-07-07T07:31:50.143Z,17.8
2017-07-07T07:32:52.202Z,17.9
2017-07-07T07:33:54.275Z,17.9
2017-07-07T07:34:56.345Z,18
2017-07-07T07:35:58.492Z,18
2017-07-07T07:37:00.559Z,18.1
2017-07-07T07:38:02.620Z,18.1
2017-07-07T07:39:04.689Z,18.2
2017-07-07T07:40:06.762Z,18.2
2017-07-07T07:41:08.830Z,18.3
2017-07-07T07:42:10.893Z,18.3
2017-07-07T07:43:12.954Z,18.4
2017-07-07T07:44:15.034Z,18.4
2017-07-07T07:45:17.441Z,18.4
2017-07-07T07:46:19.516Z,18.4
2017-07-07T07:47:21.585Z,18.5
2017-07-07T07:48:23.645Z,18.5
2017-07-07T07:49:25.714Z,18.6
2017-07-07T07:50:27.783Z,18.6
2017-07-07T07:51:29.836Z,18.6
2017-07-07T07:52:31.906Z,18.6
2017-07-07T07:53:33.971Z,18.6
2017-07-07T07:54:36.032Z,18.6
2017-07-07T07:55:38.107Z,18.6
2017-07-07T07:56:40.173Z,18.7
2017-07-07T07:57:42.241Z,18.6
2017-07-07T07:58:44.298Z,18.5
2017-07-07T07:59:46.370Z,18.6
2017-07-07T08:00:48.442Z,18.6
2017-07-07T08:01:50.499Z,18.6
2017-07-07T08:02:52.568Z,18.6
2017-07-07T08:03:54.634Z,18.5
2017-07-07T08:04:56.702Z,18.5
2017-07-07T08:05:58.768Z,18.5
2017-07-07T08:07:00.823Z,18.5
2017-07-07T08:08:02.896Z,18.6
2017-07-07T08:09:04.960Z,18.5
2017-07-07T08:10:07.025Z,18.5
2017-07-07T08:11:09.442Z,18.5
2017-07-07T08:12:11.509Z,18.5
2017-07-07T08:13:13.570Z,18.5
2017-07-07T08:14:15.643Z,18.5
2017-07-07T08:15:17.705Z,18.5
2017-07-07T08:16:19.781Z,18.5
2017-07-07T08:17:21.846Z,18.6
2017-07-07T08:18:23.911Z,18.6
2017-07-07T08:19:25.967Z,18.6
2017-07-07T08:20:28.033Z,18.6
2017-07-07T08:21:30.092Z,18.6
2017-07-07T08:22:32.153Z,18.6
2017-07-07T08:23:34.217Z,18.5
2017-07-07T08:24:36.288Z,18.6
2017-07-07T08:25:38.357Z,18.5
2017-07-07T08:26:40.426Z,18.5
2017-07-07T08:27:42.485Z,18.6
2017-07-07T08:28:44.551Z,18.6
2017-07-07T08:29:46.609Z,18.6
2017-07-07T08:30:48.671Z,18.6
2017-07-07T08:31:50.725Z,18.6
2017-07-07T08:32:52.797Z,18.7
2017-07-07T08:33:54.865Z,18.8
2017-07-07T08:34:56.929Z,18.8
2017-07-07T08:35:59.045Z,18.7
2017-07-07T08:37:01.122Z,18.7
2017-07-07T08:38:03.180Z,18.9
2017-07-07T08:39:05.242Z,18.8
2017-07-07T08:40:07.310Z,18.9
2017-07-07T08:41:09.383Z,18.9
2017-07-07T08:42:11.461Z,18.9
2017-07-07T08:43:13.888Z,18.9
2017-07-07T08:44:15.952Z,18.9
2017-07-07T08:45:18.030Z,19
2017-07-07T08:46:20.086Z,19
2017-07-07T08:47:22.162Z,19.1
2017-07-07T08:48:24.230Z,19.2
2017-07-07T08:49:26.639Z,19.3
2017-07-07T08:50:28.697Z,19.3
2017-07-07T08:51:30.762Z,19.4
2017-07-07T08:52:32.831Z,19.4
2017-07-07T08:53:34.905Z,19.4
2017-07-07T08:54:36.967Z,19.4
2017-07-07T08:55:39.047Z,19.4
2017-07-07T08:56:41.113Z,19.5
2017-07-07T08:57:43.171Z,19.4
2017-07-07T08:58:45.235Z,19.4
2017-07-07T08:59:47.303Z,19.4
2017-07-07T09:00:49.378Z,19.5
2017-07-07T09:01:51.448Z,19.5
2017-07-07T09:02:53.506Z,19.5
2017-07-07T09:03:55.574Z,19.5
2017-07-07T09:04:57.981Z,19.4
2017-07-07T09:06:00.051Z,19.5
2017-07-07T09:07:02.107Z,19.6
2017-07-07T09:08:04.174Z,19.6
2017-07-07T09:09:06.242Z,19.6
2017-07-07T09:10:08.309Z,19.5
2017-07-07T09:11:10.380Z,19.6
2017-07-07T09:12:12.446Z,19.6
2017-07-07T09:13:14.518Z,19.6
2017-07-07T09:14:16.585Z,19.7
2017-07-07T09:15:18.643Z,19.5
2017-07-07T09:16:20.721Z,19.5
2017-07-07T09:17:22.788Z,19.6
2017-07-07T09:18:24.859Z,19.6
2017-07-07T09:19:26.921Z,19.7
2017-07-07T09:20:28.983Z,19.7
2017-07-07T09:21:31.062Z,19.7
2017-07-07T09:22:33.120Z,19.7
2017-07-07T09:23:35.190Z,19.7
2017-07-07T09:24:37.261Z,19.7
2017-07-07T09:25:39.326Z,19.8
2017-07-07T09:26:41.397Z,20.1
2017-07-07T09:27:43.464Z,20.5
2017-07-07T09:28:45.548Z,20.8
2017-07-07T09:29:47.619Z,21.1
2017-07-07T09:30:49.677Z,21.1
2017-07-07T09:31:51.744Z,21.2
2017-07-07T09:32:53.814Z,21.4
2017-07-07T09:33:56.221Z,21.5
2017-07-07T09:34:58.290Z,21.4
2017-07-07T09:36:00.773Z,21.4
2017-07-07T09:37:02.851Z,21.6
2017-07-07T09:38:05.262Z,21.8
2017-07-07T09:39:07.333Z,22
2017-07-07T09:40:09.404Z,22.2
2017-07-07T09:41:11.478Z,22.3
2017-07-07T09:42:13.550Z,22.2
2017-07-07T09:43:15.956Z,22.3
2017-07-07T09:44:18.021Z,22.5
2017-07-07T09:45:20.090Z,22.5
2017-07-07T09:46:22.165Z,22.5
2017-07-07T09:47:24.221Z,22.5
2017-07-07T09:48:26.296Z,22.5
2017-07-07T09:49:28.372Z,22.6
2017-07-07T09:50:30.444Z,22.9
2017-07-07T09:51:32.513Z,23.1
2017-07-07T09:52:34.585Z,23.1
2017-07-07T09:53:36.665Z,23.2
2017-07-07T09:54:38.733Z,23.3
2017-07-07T09:55:40.805Z,23.4
2017-07-07T09:56:42.887Z,23.6
2017-07-07T09:57:44.955Z,23.6
2017-07-07T09:58:47.028Z,23.4
2017-07-07T09:59:49.095Z,23.4
2017-07-07T10:00:51.182Z,23.5
2017-07-07T10:01:53.243Z,23.4
2017-07-07T10:02:55.311Z,23.4
2017-07-07T10:03:57.388Z,23.7
2017-07-07T10:04:59.466Z,23.8
2017-07-07T10:06:01.539Z,23.7
2017-07-07T10:07:03.615Z,23.6
2017-07-07T10:08:05.683Z,23.5
2017-07-07T10:09:07.761Z,23.5
2017-07-07T10:10:09.822Z,23.3
2017-07-07T10:11:11.904Z,23.4
2017-07-07T10:12:13.975Z,23.5
2017-07-07T10:13:16.052Z,23.6
2017-07-07T10:14:18.137Z,23.8
2017-07-07T10:15:20.209Z,24.1
2017-07-07T10:16:22.282Z,24.2
2017-07-07T10:17:24.362Z,24.3
2017-07-07T10:18:26.434Z,24.2
2017-07-07T10:19:28.521Z,23.9
2017-07-07T10:20:30.611Z,23.9
2017-07-07T10:21:32.694Z,24.1
2017-07-07T10:22:34.767Z,24.2
2017-07-07T10:23:36.846Z,24.3
2017-07-07T10:24:38.929Z,24.5
2017-07-07T10:25:41.017Z,24.6
2017-07-07T10:26:43.091Z,24.6
2017-07-07T10:27:45.159Z,24.6
2017-07-07T10:28:47.247Z,24.5
2017-07-07T10:29:49.310Z,24.4
2017-07-07T10:30:51.402Z,24.5
2017-07-07T10:31:53.481Z,24.8
2017-07-07T10:32:55.565Z,25.1
2017-07-07T10:33:57.652Z,25.3
2017-07-07T10:34:59.734Z,25.2
2017-07-07T10:36:01.870Z,25.2
2017-07-07T10:37:03.967Z,25.3
2017-07-07T10:38:06.042Z,25.4
2017-07-07T10:39:08.115Z,25.5
2017-07-07T10:40:10.200Z,25.6
2017-07-07T10:41:12.283Z,25.6
2017-07-07T10:42:14.371Z,25.5
2017-07-07T10:43:16.803Z,25.6
2017-07-07T10:44:18.890Z,25.5
2017-07-07T10:45:20.981Z,25.5
2017-07-07T10:46:23.059Z,25.8
2017-07-07T10:47:25.140Z,25.7
2017-07-07T10:48:27.226Z,26
2017-07-07T10:49:29.308Z,25.8
2017-07-07T10:50:31.390Z,25.8
2017-07-07T10:51:33.478Z,25.9
2017-07-07T10:52:35.564Z,25.8
2017-07-07T10:53:37.644Z,25.7
2017-07-07T10:54:39.723Z,25.6
2017-07-07T10:55:41.812Z,25.6
2017-07-07T10:56:44.238Z,25.7
2017-07-07T10:57:46.325Z,25.8
2017-07-07T10:58:48.401Z,25.8
2017-07-07T10:59:50.481Z,25.6
2017-07-07T11:00:52.571Z,25.9
2017-07-07T11:01:54.651Z,25.7
2017-07-07T11:02:56.734Z,25.7
2017-07-07T11:03:58.826Z,25.8
2017-07-07T11:05:00.907Z,26.3
2017-07-07T11:06:02.990Z,26.4
2017-07-07T11:07:05.072Z,25.9
2017-07-07T11:08:07.156Z,25.8
2017-07-07T11:09:09.236Z,25.7
2017-07-07T11:10:11.315Z,25.5
2017-07-07T11:11:13.400Z,25.8
2017-07-07T11:12:15.484Z,26.2
2017-07-07T11:13:17.566Z,26.3
2017-07-07T11:14:19.651Z,26
2017-07-07T11:15:21.743Z,26
2017-07-07T11:16:23.825Z,25.9
2017-07-07T11:17:25.900Z,25.8
2017-07-07T11:18:27.986Z,26
2017-07-07T11:19:30.069Z,26
2017-07-07T11:20:32.149Z,25.9
2017-07-07T11:21:34.243Z,25.9
2017-07-07T11:22:36.324Z,25.7
2017-07-07T11:23:38.409Z,25.9
2017-07-07T11:24:40.491Z,26.1
2017-07-07T11:25:42.564Z,26.3
2017-07-07T11:26:44.652Z,26.3
2017-07-07T11:27:46.733Z,26.3
2017-07-07T11:28:48.814Z,26.5
2017-07-07T11:29:50.899Z,26.3
2017-07-07T11:30:52.978Z,26.3
2017-07-07T11:31:55.072Z,26.4
2017-07-07T11:32:57.149Z,26.4
2017-07-07T11:34:00.304Z,26.2
2017-07-07T11:35:02.387Z,26.1
2017-07-07T11:36:04.461Z,26.3
2017-07-07T11:37:06.552Z,26.2
2017-07-07T11:38:08.638Z,26.2
2017-07-07T11:39:10.722Z,26.3
2017-07-07T11:40:12.806Z,26.1
2017-07-07T11:41:14.886Z,26.5
2017-07-07T11:42:17.338Z,26.7
2017-07-07T11:43:19.413Z,26.9
2017-07-07T11:44:21.508Z,26.9
2017-07-07T11:45:23.593Z,27.2
2017-07-07T11:46:25.684Z,27.2
2017-07-07T11:47:27.767Z,26.9
2017-07-07T11:48:30.216Z,26.8
2017-07-07T11:49:32.304Z,27.2
2017-07-07T11:50:34.381Z,27
2017-07-07T11:51:36.470Z,26.7
2017-07-07T11:52:38.568Z,26.5
2017-07-07T11:53:40.664Z,26.6
2017-07-07T11:54:42.748Z,26.5
2017-07-07T11:55:44.840Z,26.6
2017-07-07T11:56:46.925Z,26.6
2017-07-07T11:57:49.001Z,26.4
2017-07-07T11:58:51.081Z,26.2
2017-07-07T11:59:53.171Z,25.9
2017-07-07T12:00:55.252Z,25.8
2017-07-07T12:01:57.341Z,25.9
2017-07-07T12:02:59.430Z,26.3
2017-07-07T12:04:01.517Z,26.4
2017-07-07T12:05:03.616Z,26.1
2017-07-07T12:06:05.699Z,25.9
2017-07-07T12:07:07.787Z,25.8
2017-07-07T12:08:09.872Z,25.8
2017-07-07T12:09:12.322Z,25.7
2017-07-07T12:10:14.403Z,25.6
2017-07-07T12:11:16.493Z,25.7
2017-07-07T12:12:18.579Z,25.7
2017-07-07T12:13:20.666Z,25.6
2017-07-07T12:14:22.757Z,25.5
2017-07-07T12:15:24.848Z,25.5
2017-07-07T12:16:26.927Z,25.5
2017-07-07T12:17:29.016Z,25.4
2017-07-07T12:18:31.433Z,25.3
2017-07-07T12:19:33.518Z,25.3
2017-07-07T12:20:35.606Z,25.3
2017-07-07T12:21:37.691Z,25.2
2017-07-07T12:22:39.777Z,24.9
2017-07-07T12:23:41.863Z,24.9
2017-07-07T12:24:43.947Z,24.9
2017-07-07T12:25:46.029Z,25
2017-07-07T12:26:48.107Z,25
2017-07-07T12:27:50.195Z,25.1
2017-07-07T12:28:52.278Z,25.1
2017-07-07T12:29:54.364Z,25.2
2017-07-07T12:30:56.444Z,25.2
2017-07-07T12:31:58.528Z,25.3
2017-07-07T12:33:00.618Z,25.2
2017-07-07T12:34:02.697Z,25.3
2017-07-07T12:35:04.783Z,25.3
2017-07-07T12:36:06.877Z,25.2
2017-07-07T12:37:08.967Z,25.4
2017-07-07T12:38:11.044Z,25.5
2017-07-07T12:39:13.131Z,25.5
2017-07-07T12:40:15.223Z,25.6
2017-07-07T12:41:17.315Z,25.5
2017-07-07T12:42:19.392Z,25.6
2017-07-07T12:43:21.476Z,25.6
2017-07-07T12:44:23.552Z,25.7
2017-07-07T12:45:25.633Z,25.5
2017-07-07T12:46:27.705Z,25.4
2017-07-07T12:47:29.800Z,25.4
2017-07-07T12:48:31.884Z,25.5
2017-07-07T12:49:33.963Z,25.6
2017-07-07T12:50:36.057Z,25.8
2017-07-07T12:51:38.135Z,25.9
2017-07-07T12:52:40.217Z,26
2017-07-07T12:53:42.304Z,25.8
2017-07-07T12:54:44.381Z,25.8
2017-07-07T12:55:46.462Z,25.8
2017-07-07T12:56:48.545Z,25.8
2017-07-07T12:57:50.631Z,25.7
2017-07-07T12:58:52.714Z,25.6
2017-07-07T12:59:54.796Z,25.7
2017-07-07T13:00:56.884Z,25.6
2017-07-07T13:01:58.974Z,25.6
2017-07-07T13:03:01.049Z,25.5
2017-07-07T13:04:03.129Z,25.5
2017-07-07T13:05:05.213Z,25.5
2017-07-07T13:06:07.301Z,25.5
2017-07-07T13:07:09.390Z,25.6
2017-07-07T13:08:11.465Z,25.7
2017-07-07T13:09:13.545Z,25.7
2017-07-07T13:10:15.631Z,25.9
2017-07-07T13:11:17.708Z,25.8
2017-07-07T13:12:19.793Z,25.8
2017-07-07T13:13:21.881Z,25.8
2017-07-07T13:14:23.959Z,25.6
2017-07-07T13:15:26.041Z,25.6
2017-07-07T13:16:28.125Z,25.6
2017-07-07T13:17:30.210Z,25.5
2017-07-07T13:18:32.290Z,25.6
2017-07-07T13:19:34.375Z,25.5
2017-07-07T13:20:36.468Z,25.5
2017-07-07T13:21:38.545Z,25.7
2017-07-07T13:22:40.621Z,25.9
2017-07-07T13:23:42.714Z,26.1
2017-07-07T13:24:44.854Z,26.3
2017-07-07T13:25:46.878Z,26.2
2017-07-07T13:26:48.962Z,26.4
2017-07-07T13:27:51.044Z,26.8
2017-07-07T13:28:53.132Z,27.1
2017-07-07T13:29:55.213Z,27.4
2017-07-07T13:30:57.295Z,27.6
2017-07-07T13:31:59.367Z,27.6
2017-07-07T13:33:01.452Z,27.6
2017-07-07T13:34:03.539Z,27.8
2017-07-07T13:35:05.625Z,27.6
2017-07-07T13:36:07.712Z,27.4
2017-07-07T13:37:09.801Z,27.6
2017-07-07T13:38:11.884Z,27.5
2017-07-07T13:39:13.956Z,27.7
2017-07-07T13:40:16.039Z,27.9
2017-07-07T13:41:18.129Z,28
2017-07-07T13:42:20.212Z,28
2017-07-07T13:43:22.292Z,28.2
2017-07-07T13:44:24.367Z,28.5
2017-07-07T13:45:26.456Z,28.7
2017-07-07T13:46:28.545Z,28.8
2017-07-07T13:47:30.636Z,28.9
2017-07-07T13:48:32.734Z,28.9
2017-07-07T13:49:34.819Z,28.5
2017-07-07T13:50:36.905Z,28.5
2017-07-07T13:51:38.990Z,28.4
2017-07-07T13:52:41.778Z,28.3
2017-07-07T13:53:43.872Z,28.3
2017-07-07T13:54:45.974Z,28.2